createdAt,value
2023-05-05T00:00:00.000Z,7.6111111111111125
2023-05-05T00:00:25.000Z,7.5
2023-05-05T00:00:55.000Z,7.5
2023-05-05T00:01:25.000Z,7.277777777777778
2023-05-05T00:01:46.000Z,7.5
2023-05-05T00:02:15.000Z,7.277777777777778
2023-05-05T00:02:45.000Z,7.277777777777778
2023-05-05T00:03:06.000Z,7.277777777777778
2023-05-05T00:03:36.000Z,7.277777777777778
2023-05-05T00:03:57.000Z,7.277777777777778
2023-05-05T00:04:26.000Z,7.3888888888888875
2023-05-05T00:04:55.000Z,6.888888888888888
2023-05-05T00:05:25.000Z,6.611111111111111
2023-05-05T00:05:45.000Z,6.611111111111111
2023-05-05T00:06:10.000Z,6.611111111111111
2023-05-05T00:06:33.000Z,6.7777777777777795
2023-05-05T00:07:00.000Z,6.888888888888888
2023-05-05T00:07:20.000Z,7.11111111111111
2023-05-05T00:07:50.000Z,7.222222222222222
2023-05-05T00:08:26.000Z,7.222222222222222
2023-05-05T00:08:55.000Z,7.3888888888888875
2023-05-05T00:09:25.000Z,7.222222222222222
2023-05-05T00:09:46.000Z,7.222222222222222
2023-05-05T00:10:15.000Z,7.222222222222222
2023-05-05T00:10:45.000Z,7.277777777777778
2023-05-05T00:11:06.000Z,7.277777777777778
2023-05-05T00:11:35.000Z,7.000000000000001
2023-05-05T00:11:57.000Z,7.000000000000001
2023-05-05T00:12:25.000Z,7.000000000000001
2023-05-05T00:12:55.000Z,7.11111111111111
2023-05-05T00:13:26.000Z,6.888888888888888
2023-05-05T00:14:01.000Z,6.888888888888888
2023-05-05T00:14:30.000Z,7.000000000000001
2023-05-05T00:14:56.000Z,7.11111111111111
2023-05-05T00:15:20.000Z,7.222222222222222
2023-05-05T00:15:50.000Z,7.222222222222222
2023-05-05T00:16:26.000Z,7.222222222222222
2023-05-05T00:16:55.000Z,6.888888888888888
2023-05-05T00:17:25.000Z,6.888888888888888
2023-05-05T00:17:45.000Z,7.000000000000001
2023-05-05T00:18:15.000Z,7.277777777777778
2023-05-05T00:18:55.000Z,7.000000000000001
2023-05-05T00:19:21.000Z,7.11111111111111
2023-05-05T00:19:50.000Z,7.11111111111111
2023-05-05T00:20:26.000Z,6.7777777777777795
2023-05-05T00:20:56.000Z,6.7777777777777795
2023-05-05T00:21:25.000Z,6.888888888888888
2023-05-05T00:22:00.000Z,6.888888888888888
2023-05-05T00:22:30.000Z,6.888888888888888
2023-05-05T00:23:04.000Z,7.000000000000001
2023-05-05T00:23:35.000Z,7.000000000000001
2023-05-05T00:23:57.000Z,7.000000000000001
2023-05-05T00:24:35.000Z,7.11111111111111
2023-05-05T00:25:05.000Z,7.11111111111111
2023-05-05T00:25:28.000Z,7.11111111111111
2023-05-05T00:25:56.000Z,7.11111111111111
2023-05-05T00:26:16.000Z,7.11111111111111
2023-05-05T00:26:45.000Z,6.7777777777777795
2023-05-05T00:27:20.000Z,7.11111111111111
2023-05-05T00:27:50.000Z,7.11111111111111
2023-05-05T00:28:25.000Z,6.7777777777777795
2023-05-05T00:28:55.000Z,6.7777777777777795
2023-05-05T00:29:25.000Z,7.222222222222222
2023-05-05T00:30:01.000Z,7.222222222222222
2023-05-05T00:30:30.000Z,6.888888888888888
2023-05-05T00:31:04.000Z,7.11111111111111
2023-05-05T00:31:35.000Z,7.11111111111111
2023-05-05T00:31:57.000Z,7.11111111111111
2023-05-05T00:32:26.000Z,7.3888888888888875
2023-05-05T00:32:55.000Z,7.11111111111111
2023-05-05T00:33:25.000Z,7.277777777777778
2023-05-05T00:34:01.000Z,7.277777777777778
2023-05-05T00:34:30.000Z,7.277777777777778
2023-05-05T00:34:56.000Z,6.888888888888888
2023-05-05T00:35:21.000Z,6.888888888888888
2023-05-05T00:35:51.000Z,6.888888888888888
2023-05-05T00:36:25.000Z,6.888888888888888
2023-05-05T00:37:05.000Z,7.000000000000001
2023-05-05T00:37:28.000Z,7.000000000000001
2023-05-05T00:37:56.000Z,7.000000000000001
2023-05-05T00:38:25.000Z,7.000000000000001
2023-05-05T00:38:55.000Z,7.000000000000001
2023-05-05T00:39:22.000Z,7.000000000000001
2023-05-05T00:39:49.000Z,7.000000000000001
2023-05-05T00:40:15.000Z,7.000000000000001
2023-05-05T00:40:42.000Z,7.000000000000001
2023-05-05T00:41:11.000Z,6.7777777777777795
2023-05-05T00:41:46.000Z,6.7777777777777795
2023-05-05T00:42:16.000Z,6.888888888888888
2023-05-05T00:42:45.000Z,6.888888888888888
2023-05-05T00:43:21.000Z,6.888888888888888
2023-05-05T00:43:50.000Z,6.888888888888888
2023-05-05T00:44:25.000Z,6.888888888888888
2023-05-05T00:44:55.000Z,7.222222222222222
2023-05-05T00:45:25.000Z,7.222222222222222
2023-05-05T00:45:45.000Z,7.222222222222222
2023-05-05T00:46:15.000Z,7.222222222222222
2023-05-05T00:46:55.000Z,7.222222222222222
2023-05-05T00:47:20.000Z,7.3888888888888875
2023-05-05T00:47:50.000Z,7.277777777777778
2023-05-05T00:48:26.000Z,7.277777777777778
2023-05-05T00:48:55.000Z,6.888888888888888
2023-05-05T00:49:25.000Z,7.222222222222222
2023-05-05T00:49:45.000Z,6.888888888888888
2023-05-05T00:50:15.000Z,7.222222222222222
2023-05-05T00:50:45.000Z,6.888888888888888
2023-05-05T00:51:04.000Z,6.888888888888888
2023-05-05T00:51:36.000Z,7.000000000000001
2023-05-05T00:51:57.000Z,7.000000000000001
2023-05-05T00:52:25.000Z,7.11111111111111
2023-05-05T00:53:05.000Z,7.11111111111111
2023-05-05T00:53:30.000Z,7.11111111111111
2023-05-05T00:54:00.000Z,7.11111111111111
2023-05-05T00:54:30.000Z,7.11111111111111
2023-05-05T00:54:56.000Z,7.11111111111111
2023-05-05T00:55:20.000Z,7.11111111111111
2023-05-05T00:55:51.000Z,7.11111111111111
2023-05-05T00:56:25.000Z,7.11111111111111
2023-05-05T00:56:56.000Z,7.11111111111111
2023-05-05T00:57:25.000Z,7.3888888888888875
2023-05-05T00:57:46.000Z,7.3888888888888875
2023-05-05T00:58:15.000Z,7.3888888888888875
2023-05-05T00:58:45.000Z,7.277777777777778
2023-05-05T00:59:05.000Z,7.277777777777778
2023-05-05T00:59:35.000Z,7.277777777777778
2023-05-05T00:59:57.000Z,7.277777777777778
2023-05-05T01:00:25.000Z,7.277777777777778
2023-05-05T01:00:55.000Z,7.277777777777778
2023-05-05T01:01:25.000Z,7.277777777777778
2023-05-05T01:01:45.000Z,7.000000000000001
2023-05-05T01:02:15.000Z,7.000000000000001
2023-05-05T01:02:45.000Z,7.000000000000001
2023-05-05T01:03:06.000Z,7.11111111111111
2023-05-05T01:03:35.000Z,7.11111111111111
2023-05-05T01:03:57.000Z,7.11111111111111
2023-05-05T01:04:35.000Z,7.11111111111111
2023-05-05T01:05:05.000Z,7.11111111111111
2023-05-05T01:05:28.000Z,7.11111111111111
2023-05-05T01:05:56.000Z,7.11111111111111
2023-05-05T01:06:25.000Z,7.11111111111111
2023-05-05T01:06:55.000Z,7.11111111111111
2023-05-05T01:07:22.000Z,7.11111111111111
2023-05-05T01:07:49.000Z,7.11111111111111
2023-05-05T01:08:15.000Z,7.11111111111111
2023-05-05T01:08:42.000Z,7.11111111111111
2023-05-05T01:09:05.000Z,7.11111111111111
2023-05-05T01:09:31.000Z,7.222222222222222
2023-05-05T01:10:01.000Z,7.222222222222222
2023-05-05T01:10:30.000Z,7.222222222222222
2023-05-05T01:10:56.000Z,7.222222222222222
2023-05-05T01:11:20.000Z,7.222222222222222
2023-05-05T01:11:50.000Z,7.222222222222222
2023-05-05T01:12:25.000Z,7.222222222222222
2023-05-05T01:12:55.000Z,7.222222222222222
2023-05-05T01:13:25.000Z,7.222222222222222
2023-05-05T01:14:01.000Z,7.222222222222222
2023-05-05T01:14:30.000Z,7.222222222222222
2023-05-05T01:14:56.000Z,7.11111111111111
2023-05-05T01:15:22.000Z,7.3888888888888875
2023-05-05T01:15:49.000Z,7.3888888888888875
2023-05-05T01:16:15.000Z,7.277777777777778
2023-05-05T01:16:42.000Z,7.277777777777778
2023-05-05T01:17:05.000Z,7.277777777777778
2023-05-05T01:17:28.000Z,7.277777777777778
2023-05-05T01:17:56.000Z,7.000000000000001
2023-05-05T01:18:25.000Z,7.000000000000001
2023-05-05T01:18:55.000Z,7.277777777777778
2023-05-05T01:19:22.000Z,7.277777777777778
2023-05-05T01:19:49.000Z,7.277777777777778
2023-05-05T01:20:15.000Z,7.277777777777778
2023-05-05T01:20:42.000Z,7.277777777777778
2023-05-05T01:21:05.000Z,7.277777777777778
2023-05-05T01:21:28.000Z,7.277777777777778
2023-05-05T01:21:56.000Z,7.277777777777778
2023-05-05T01:22:25.000Z,7.277777777777778
2023-05-05T01:22:45.000Z,7.222222222222222
2023-05-05T01:23:20.000Z,7.222222222222222
2023-05-05T01:23:50.000Z,7.5
2023-05-05T01:24:26.000Z,7.5
2023-05-05T01:24:55.000Z,7.5
2023-05-05T01:25:25.000Z,7.3888888888888875
2023-05-05T01:26:00.000Z,7.3888888888888875
2023-05-05T01:26:31.000Z,7.3888888888888875
2023-05-05T01:26:56.000Z,7.3888888888888875
2023-05-05T01:27:20.000Z,7.3888888888888875
2023-05-05T01:27:50.000Z,7.3888888888888875
2023-05-05T01:28:25.000Z,7.3888888888888875
2023-05-05T01:29:05.000Z,7.3888888888888875
2023-05-05T01:29:28.000Z,7.11111111111111
2023-05-05T01:30:01.000Z,7.3888888888888875
2023-05-05T01:30:30.000Z,7.3888888888888875
2023-05-05T01:30:56.000Z,7.3888888888888875
2023-05-05T01:31:21.000Z,7.3888888888888875
2023-05-05T01:31:51.000Z,7.3888888888888875
2023-05-05T01:32:25.000Z,7.3888888888888875
2023-05-05T01:32:56.000Z,7.722222222222222
2023-05-05T01:33:25.000Z,7.3888888888888875
2023-05-05T01:34:00.000Z,7.3888888888888875
2023-05-05T01:34:31.000Z,7.3888888888888875
2023-05-05T01:35:05.000Z,7.3888888888888875
2023-05-05T01:35:33.000Z,7.3888888888888875
2023-05-05T01:36:00.000Z,7.3888888888888875
2023-05-05T01:36:25.000Z,7.3888888888888875
2023-05-05T01:36:53.000Z,7.277777777777778
2023-05-05T01:37:09.000Z,7.6111111111111125
2023-05-05T01:37:25.000Z,7.777777777777778
2023-05-05T01:38:00.000Z,7.6111111111111125
2023-05-05T01:38:30.000Z,7.277777777777778
2023-05-05T01:39:04.000Z,7.277777777777778
2023-05-05T01:39:36.000Z,7.6111111111111125
2023-05-05T01:39:57.000Z,7.6111111111111125
2023-05-05T01:40:26.000Z,7.6111111111111125
2023-05-05T01:40:55.000Z,7.5
2023-05-05T01:41:25.000Z,7.5
2023-05-05T01:41:45.000Z,7.5
2023-05-05T01:42:15.000Z,7.5
2023-05-05T01:42:55.000Z,7.222222222222222
2023-05-05T01:43:21.000Z,7.222222222222222
2023-05-05T01:43:50.000Z,7.5
2023-05-05T01:44:26.000Z,7.5
2023-05-05T01:44:55.000Z,7.722222222222222
2023-05-05T01:45:25.000Z,8.0
2023-05-05T01:45:46.000Z,8.0
2023-05-05T01:46:15.000Z,7.722222222222222
2023-05-05T01:46:45.000Z,7.6111111111111125
2023-05-05T01:47:06.000Z,7.88888888888889
2023-05-05T01:47:35.000Z,7.777777777777778
2023-05-05T01:47:57.000Z,7.777777777777778
2023-05-05T01:48:25.000Z,8.0
2023-05-05T01:48:53.000Z,7.722222222222222
2023-05-05T01:49:17.000Z,7.722222222222222
2023-05-05T01:49:45.000Z,7.88888888888889
2023-05-05T01:50:10.000Z,7.88888888888889
2023-05-05T01:50:33.000Z,7.6111111111111125
2023-05-05T01:50:57.000Z,7.6111111111111125
2023-05-05T01:51:20.000Z,7.6111111111111125
2023-05-05T01:51:50.000Z,7.6111111111111125
2023-05-05T01:52:26.000Z,7.277777777777778
2023-05-05T01:52:55.000Z,7.6111111111111125
2023-05-05T01:53:25.000Z,7.722222222222222
2023-05-05T01:53:46.000Z,7.722222222222222
2023-05-05T01:54:16.000Z,7.722222222222222
2023-05-05T01:54:45.000Z,7.722222222222222
2023-05-05T01:55:06.000Z,8.0
2023-05-05T01:55:36.000Z,7.88888888888889
2023-05-05T01:55:57.000Z,8.222222222222221
2023-05-05T01:56:25.000Z,7.88888888888889
2023-05-05T01:56:53.000Z,7.777777777777778
2023-05-05T01:57:17.000Z,7.777777777777778
2023-05-05T01:57:45.000Z,7.777777777777778
2023-05-05T01:58:10.000Z,8.11111111111111
2023-05-05T01:58:33.000Z,8.222222222222221
2023-05-05T01:59:00.000Z,8.499999999999998
2023-05-05T01:59:23.000Z,9.000000000000002
2023-05-05T01:59:50.000Z,9.11111111111111
2023-05-05T02:00:25.000Z,9.277777777777779
2023-05-05T02:01:05.000Z,9.38888888888889
2023-05-05T02:01:28.000Z,9.000000000000002
2023-05-05T02:01:56.000Z,8.722222222222223
2023-05-05T02:02:25.000Z,8.499999999999998
2023-05-05T02:02:55.000Z,8.61111111111111
2023-05-05T02:03:22.000Z,8.777777777777777
2023-05-05T02:03:49.000Z,8.777777777777777
2023-05-05T02:04:26.000Z,8.277777777777779
2023-05-05T02:05:05.000Z,8.499999999999998
2023-05-05T02:05:26.000Z,8.61111111111111
2023-05-05T02:06:00.000Z,8.61111111111111
2023-05-05T02:06:30.000Z,8.61111111111111
2023-05-05T02:06:56.000Z,8.61111111111111
2023-05-05T02:07:20.000Z,8.222222222222221
2023-05-05T02:07:50.000Z,8.222222222222221
2023-05-05T02:08:26.000Z,8.222222222222221
2023-05-05T02:08:55.000Z,8.277777777777779
2023-05-05T02:09:26.000Z,8.277777777777779
2023-05-05T02:10:00.000Z,8.11111111111111
2023-05-05T02:10:31.000Z,8.11111111111111
2023-05-05T02:10:56.000Z,8.11111111111111
2023-05-05T02:11:22.000Z,8.0
2023-05-05T02:11:49.000Z,7.6111111111111125
2023-05-05T02:12:26.000Z,7.88888888888889
2023-05-05T02:12:56.000Z,7.777777777777778
2023-05-05T02:13:25.000Z,8.0
2023-05-05T02:14:00.000Z,8.0
2023-05-05T02:14:30.000Z,7.88888888888889
2023-05-05T02:14:56.000Z,8.0
2023-05-05T02:15:20.000Z,8.0
2023-05-05T02:15:51.000Z,8.277777777777779
2023-05-05T02:16:25.000Z,8.11111111111111
2023-05-05T02:16:55.000Z,8.11111111111111
2023-05-05T02:17:26.000Z,8.38888888888889
2023-05-05T02:18:01.000Z,8.38888888888889
2023-05-05T02:18:31.000Z,8.38888888888889
2023-05-05T02:18:56.000Z,8.38888888888889
2023-05-05T02:19:20.000Z,8.222222222222221
2023-05-05T02:19:50.000Z,8.11111111111111
2023-05-05T02:20:25.000Z,8.11111111111111
2023-05-05T02:20:55.000Z,8.11111111111111
2023-05-05T02:21:25.000Z,8.222222222222221
2023-05-05T02:22:01.000Z,8.222222222222221
2023-05-05T02:22:31.000Z,8.222222222222221
2023-05-05T02:23:05.000Z,8.222222222222221
2023-05-05T02:23:33.000Z,8.222222222222221
2023-05-05T02:23:51.000Z,8.499999999999998
2023-05-05T02:24:25.000Z,8.499999999999998
2023-05-05T02:24:55.000Z,8.499999999999998
2023-05-05T02:25:25.000Z,8.499999999999998
2023-05-05T02:26:01.000Z,8.499999999999998
2023-05-05T02:26:30.000Z,8.61111111111111
2023-05-05T02:27:04.000Z,8.61111111111111
2023-05-05T02:27:35.000Z,8.61111111111111
2023-05-05T02:27:57.000Z,8.61111111111111
2023-05-05T02:28:25.000Z,8.61111111111111
2023-05-05T02:28:56.000Z,8.61111111111111
2023-05-05T02:29:31.000Z,8.277777777777779
2023-05-05T02:30:00.000Z,8.277777777777779
2023-05-05T02:30:30.000Z,8.277777777777779
2023-05-05T02:30:56.000Z,8.38888888888889
2023-05-05T02:31:21.000Z,8.38888888888889
2023-05-05T02:31:50.000Z,8.61111111111111
2023-05-05T02:32:25.000Z,8.61111111111111
2023-05-05T02:32:55.000Z,8.61111111111111
2023-05-05T02:33:25.000Z,8.88888888888889
2023-05-05T02:33:46.000Z,8.61111111111111
2023-05-05T02:34:15.000Z,8.61111111111111
2023-05-05T02:34:46.000Z,8.88888888888889
2023-05-05T02:35:20.000Z,8.88888888888889
2023-05-05T02:36:00.000Z,8.777777777777777
2023-05-05T02:36:25.000Z,8.777777777777777
2023-05-05T02:36:53.000Z,8.777777777777777
2023-05-05T02:37:17.000Z,8.777777777777777
2023-05-05T02:37:45.000Z,8.777777777777777
2023-05-05T02:38:10.000Z,8.777777777777777
2023-05-05T02:38:33.000Z,8.88888888888889
2023-05-05T02:39:00.000Z,8.88888888888889
2023-05-05T02:39:23.000Z,9.11111111111111
2023-05-05T02:39:50.000Z,9.11111111111111
2023-05-05T02:40:25.000Z,9.000000000000002
2023-05-05T02:41:05.000Z,9.000000000000002
2023-05-05T02:41:28.000Z,9.000000000000002
2023-05-05T02:41:56.000Z,9.000000000000002
2023-05-05T02:42:25.000Z,9.000000000000002
2023-05-05T02:42:55.000Z,9.000000000000002
2023-05-05T02:43:20.000Z,9.000000000000002
2023-05-05T02:43:50.000Z,9.000000000000002
2023-05-05T02:44:26.000Z,9.000000000000002
2023-05-05T02:44:55.000Z,9.11111111111111
2023-05-05T02:45:25.000Z,9.11111111111111
2023-05-05T02:45:46.000Z,9.11111111111111
2023-05-05T02:46:15.000Z,9.11111111111111
2023-05-05T02:46:45.000Z,9.38888888888889
2023-05-05T02:47:06.000Z,9.38888888888889
2023-05-05T02:47:35.000Z,9.277777777777779
2023-05-05T02:47:57.000Z,9.277777777777779
2023-05-05T02:48:25.000Z,9.277777777777779
2023-05-05T02:48:53.000Z,9.222222222222221
2023-05-05T02:49:17.000Z,9.222222222222221
2023-05-05T02:49:45.000Z,9.222222222222221
2023-05-05T02:50:10.000Z,9.222222222222221
2023-05-05T02:50:33.000Z,9.38888888888889
2023-05-05T02:51:00.000Z,9.38888888888889
2023-05-05T02:51:23.000Z,9.277777777777779
2023-05-05T02:51:52.000Z,9.277777777777779
2023-05-05T02:52:25.000Z,9.277777777777779
2023-05-05T02:52:55.000Z,9.277777777777779
2023-05-05T02:53:25.000Z,9.222222222222221
2023-05-05T02:53:45.000Z,9.222222222222221
2023-05-05T02:54:15.000Z,9.5
2023-05-05T02:54:46.000Z,9.222222222222221
2023-05-05T02:55:21.000Z,9.222222222222221
2023-05-05T02:55:50.000Z,9.5
2023-05-05T02:56:26.000Z,9.5
2023-05-05T02:56:55.000Z,9.5
2023-05-05T02:57:26.000Z,9.5
2023-05-05T02:57:45.000Z,9.5
2023-05-05T02:58:10.000Z,9.5
2023-05-05T02:58:33.000Z,9.38888888888889
2023-05-05T02:59:00.000Z,9.38888888888889
2023-05-05T02:59:23.000Z,9.38888888888889
2023-05-05T02:59:50.000Z,9.38888888888889
2023-05-05T03:00:26.000Z,9.38888888888889
2023-05-05T03:01:05.000Z,9.38888888888889
2023-05-05T03:01:29.000Z,9.38888888888889
2023-05-05T03:01:56.000Z,9.38888888888889
2023-05-05T03:02:25.000Z,9.38888888888889
2023-05-05T03:02:55.000Z,9.38888888888889
2023-05-05T03:03:22.000Z,9.611111111111109
2023-05-05T03:03:50.000Z,9.611111111111109
2023-05-05T03:04:25.000Z,9.38888888888889
2023-05-05T03:05:05.000Z,9.611111111111109
2023-05-05T03:05:28.000Z,9.5
2023-05-05T03:06:01.000Z,9.5
2023-05-05T03:06:30.000Z,9.5
2023-05-05T03:07:04.000Z,9.777777777777779
2023-05-05T03:07:35.000Z,9.722222222222221
2023-05-05T03:07:57.000Z,9.722222222222221
2023-05-05T03:08:26.000Z,9.611111111111109
2023-05-05T03:08:55.000Z,9.611111111111109
2023-05-05T03:09:25.000Z,9.611111111111109
2023-05-05T03:10:00.000Z,9.611111111111109
2023-05-05T03:10:30.000Z,9.5
2023-05-05T03:10:56.000Z,9.5
2023-05-05T03:11:22.000Z,9.5
2023-05-05T03:11:49.000Z,9.5
2023-05-05T03:12:15.000Z,9.722222222222221
2023-05-05T03:12:42.000Z,9.722222222222221
2023-05-05T03:13:05.000Z,9.5
2023-05-05T03:13:28.000Z,9.722222222222221
2023-05-05T03:13:56.000Z,9.722222222222221
2023-05-05T03:14:25.000Z,9.722222222222221
2023-05-05T03:14:55.000Z,9.722222222222221
2023-05-05T03:15:22.000Z,9.722222222222221
2023-05-05T03:15:49.000Z,9.722222222222221
2023-05-05T03:16:15.000Z,9.722222222222221
2023-05-05T03:16:42.000Z,9.611111111111109
2023-05-05T03:17:05.000Z,9.611111111111109
2023-05-05T03:17:28.000Z,9.611111111111109
2023-05-05T03:17:56.000Z,9.611111111111109
2023-05-05T03:18:25.000Z,9.611111111111109
2023-05-05T03:18:55.000Z,9.611111111111109
2023-05-05T03:19:22.000Z,9.611111111111109
2023-05-05T03:19:49.000Z,9.611111111111109
2023-05-05T03:20:25.000Z,9.611111111111109
2023-05-05T03:20:55.000Z,9.611111111111109
2023-05-05T03:21:25.000Z,9.888888888888888
2023-05-05T03:22:01.000Z,9.888888888888888
2023-05-05T03:22:31.000Z,9.888888888888888
2023-05-05T03:23:04.000Z,9.888888888888888
2023-05-05T03:23:35.000Z,9.777777777777779
2023-05-05T03:23:57.000Z,9.722222222222221
2023-05-05T03:24:26.000Z,9.722222222222221
2023-05-05T03:24:55.000Z,9.888888888888888
2023-05-05T03:25:25.000Z,9.888888888888888
2023-05-05T03:26:02.000Z,9.888888888888888
2023-05-05T03:26:33.000Z,9.888888888888888
2023-05-05T03:26:58.000Z,9.777777777777779
2023-05-05T03:27:20.000Z,9.777777777777779
2023-05-05T03:27:50.000Z,9.722222222222221
2023-05-05T03:28:26.000Z,9.722222222222221
2023-05-05T03:28:55.000Z,9.722222222222221
2023-05-05T03:29:25.000Z,9.888888888888888
2023-05-05T03:30:01.000Z,9.888888888888888
2023-05-05T03:30:30.000Z,9.722222222222221
2023-05-05T03:30:56.000Z,9.722222222222221
2023-05-05T03:31:21.000Z,10.0
2023-05-05T03:31:51.000Z,9.777777777777779
2023-05-05T03:32:25.000Z,9.777777777777779
2023-05-05T03:32:55.000Z,9.888888888888888
2023-05-05T03:33:25.000Z,9.888888888888888
2023-05-05T03:34:01.000Z,9.888888888888888
2023-05-05T03:34:30.000Z,9.888888888888888
2023-05-05T03:34:56.000Z,9.888888888888888
2023-05-05T03:35:20.000Z,9.888888888888888
2023-05-05T03:35:50.000Z,10.111111111111112
2023-05-05T03:36:26.000Z,10.111111111111112
2023-05-05T03:36:55.000Z,10.111111111111112
2023-05-05T03:37:25.000Z,10.111111111111112
2023-05-05T03:38:00.000Z,10.111111111111112
2023-05-05T03:38:40.000Z,10.111111111111112
2023-05-05T03:38:57.000Z,9.888888888888888
2023-05-05T03:39:20.000Z,9.888888888888888
2023-05-05T03:39:50.000Z,10.222222222222221
2023-05-05T03:40:25.000Z,10.0
2023-05-05T03:40:55.000Z,10.222222222222221
2023-05-05T03:41:26.000Z,10.222222222222221
2023-05-05T03:42:00.000Z,10.222222222222221
2023-05-05T03:42:30.000Z,10.222222222222221
2023-05-05T03:42:56.000Z,10.111111111111112
2023-05-05T03:43:20.000Z,10.111111111111112
2023-05-05T03:43:51.000Z,10.111111111111112
2023-05-05T03:44:25.000Z,10.111111111111112
2023-05-05T03:44:53.000Z,10.222222222222221
2023-05-05T03:45:40.000Z,10.222222222222221
2023-05-05T03:46:10.000Z,10.222222222222221
2023-05-05T03:46:33.000Z,10.222222222222221
2023-05-05T03:47:00.000Z,10.222222222222221
2023-05-05T03:47:23.000Z,10.222222222222221
2023-05-05T03:47:50.000Z,10.277777777777779
2023-05-05T03:48:26.000Z,10.277777777777779
2023-05-05T03:48:55.000Z,10.277777777777779
2023-05-05T03:49:25.000Z,10.277777777777779
2023-05-05T03:50:00.000Z,10.277777777777779
2023-05-05T03:50:30.000Z,10.277777777777779
2023-05-05T03:50:56.000Z,10.277777777777779
2023-05-05T03:51:20.000Z,10.277777777777779
2023-05-05T03:51:51.000Z,10.277777777777779
2023-05-05T03:52:26.000Z,10.277777777777779
2023-05-05T03:52:55.000Z,10.277777777777779
2023-05-05T03:53:26.000Z,10.277777777777779
2023-05-05T03:54:02.000Z,10.277777777777779
2023-05-05T03:54:32.000Z,10.277777777777779
2023-05-05T03:54:56.000Z,10.277777777777779
2023-05-05T03:55:17.000Z,10.5
2023-05-05T03:55:35.000Z,10.5
2023-05-05T03:55:57.000Z,10.5
2023-05-05T03:56:26.000Z,10.5
2023-05-05T03:56:56.000Z,10.5
2023-05-05T03:57:26.000Z,10.5
2023-05-05T03:58:01.000Z,10.5
2023-05-05T03:58:31.000Z,10.388888888888891
2023-05-05T03:58:56.000Z,10.388888888888891
2023-05-05T03:59:20.000Z,10.388888888888891
2023-05-05T03:59:51.000Z,10.388888888888891
2023-05-05T04:00:26.000Z,10.388888888888891
2023-05-05T04:01:05.000Z,10.388888888888891
2023-05-05T04:01:28.000Z,10.388888888888891
2023-05-05T04:01:56.000Z,10.388888888888891
2023-05-05T04:02:25.000Z,10.388888888888891
2023-05-05T04:02:55.000Z,10.388888888888891
2023-05-05T04:03:22.000Z,10.5
2023-05-05T04:03:49.000Z,10.61111111111111
2023-05-05T04:04:15.000Z,10.5
2023-05-05T04:04:42.000Z,10.5
2023-05-05T04:05:05.000Z,10.5
2023-05-05T04:05:28.000Z,10.5
2023-05-05T04:05:56.000Z,10.61111111111111
2023-05-05T04:06:25.000Z,10.61111111111111
2023-05-05T04:06:55.000Z,10.61111111111111
2023-05-05T04:07:22.000Z,10.722222222222221
2023-05-05T04:07:50.000Z,10.722222222222221
2023-05-05T04:08:26.000Z,10.61111111111111
2023-05-05T04:08:56.000Z,10.61111111111111
2023-05-05T04:09:26.000Z,10.61111111111111
2023-05-05T04:09:46.000Z,10.61111111111111
2023-05-05T04:10:15.000Z,10.61111111111111
2023-05-05T04:10:45.000Z,10.722222222222221
2023-05-05T04:11:21.000Z,10.722222222222221
2023-05-05T04:11:50.000Z,10.722222222222221
2023-05-05T04:12:26.000Z,10.61111111111111
2023-05-05T04:13:05.000Z,10.61111111111111
2023-05-05T04:13:25.000Z,10.61111111111111
2023-05-05T04:13:46.000Z,10.61111111111111
2023-05-05T04:14:15.000Z,10.61111111111111
2023-05-05T04:14:46.000Z,10.61111111111111
2023-05-05T04:15:21.000Z,10.61111111111111
2023-05-05T04:15:51.000Z,10.61111111111111
2023-05-05T04:16:26.000Z,10.61111111111111
2023-05-05T04:16:55.000Z,10.61111111111111
2023-05-05T04:17:26.000Z,10.61111111111111
2023-05-05T04:18:00.000Z,10.61111111111111
2023-05-05T04:18:31.000Z,10.61111111111111
2023-05-05T04:18:56.000Z,10.61111111111111
2023-05-05T04:19:17.000Z,10.61111111111111
2023-05-05T04:19:36.000Z,10.61111111111111
2023-05-05T04:19:57.000Z,10.88888888888889
2023-05-05T04:20:26.000Z,10.777777777777779
2023-05-05T04:20:56.000Z,10.777777777777779
2023-05-05T04:21:26.000Z,10.777777777777779
2023-05-05T04:22:01.000Z,10.777777777777779
2023-05-05T04:22:31.000Z,10.777777777777779
2023-05-05T04:23:04.000Z,10.777777777777779
2023-05-05T04:23:35.000Z,10.777777777777779
2023-05-05T04:23:56.000Z,10.777777777777779
2023-05-05T04:24:26.000Z,10.777777777777779
2023-05-05T04:24:55.000Z,10.722222222222221
2023-05-05T04:25:30.000Z,10.88888888888889
2023-05-05T04:26:01.000Z,10.88888888888889
2023-05-05T04:26:31.000Z,10.88888888888889
2023-05-05T04:27:04.000Z,10.88888888888889
2023-05-05T04:27:36.000Z,10.88888888888889
2023-05-05T04:27:58.000Z,10.88888888888889
2023-05-05T04:28:26.000Z,10.777777777777779
2023-05-05T04:28:56.000Z,10.777777777777779
2023-05-05T04:29:26.000Z,10.777777777777779
2023-05-05T04:30:01.000Z,10.777777777777779
2023-05-05T04:30:31.000Z,10.777777777777779
2023-05-05T04:30:56.000Z,10.777777777777779
2023-05-05T04:31:22.000Z,10.777777777777779
2023-05-05T04:31:49.000Z,10.777777777777779
2023-05-05T04:32:15.000Z,10.777777777777779
2023-05-05T04:32:42.000Z,10.999999999999998
2023-05-05T04:33:05.000Z,10.999999999999998
2023-05-05T04:33:29.000Z,10.999999999999998
2023-05-05T04:33:56.000Z,10.999999999999998